createdAt,value
2023-04-09T00:01:23.837Z,9.27
2023-04-09T00:03:53.184Z,9.15
2023-04-09T00:06:22.291Z,8.93
2023-04-09T00:08:51.002Z,8.72
2023-04-09T00:13:53.948Z,9.32
2023-04-09T00:16:22.348Z,9.45
2023-04-09T00:18:51.016Z,9.41
2023-04-09T00:21:20.822Z,9.21
2023-04-09T00:23:49.061Z,9.04
2023-04-09T00:26:17.476Z,8.84
2023-04-09T00:28:46.219Z,8.69
2023-04-09T00:31:15.886Z,8.87
2023-04-09T00:33:44.823Z,9.15
2023-04-09T00:36:14.246Z,9.29
2023-04-09T00:38:42.846Z,9.24
2023-04-09T00:41:13.542Z,9.13
2023-04-09T00:43:41.816Z,8.93
2023-04-09T00:46:10.102Z,8.80
2023-04-09T00:48:39.607Z,8.67
2023-04-09T00:51:09.167Z,8.86
2023-04-09T00:53:37.630Z,9.25
2023-04-09T00:56:07.058Z,9.39
2023-04-09T00:58:41.802Z,9.39
2023-04-09T01:01:10.105Z,9.19
2023-04-09T01:03:40.050Z,9.02
2023-04-09T01:06:23.071Z,8.86
2023-04-09T01:09:12.155Z,8.76
2023-04-09T01:12:07.122Z,8.98
2023-04-09T01:14:41.365Z,9.30
2023-04-09T01:17:58.985Z,9.40
2023-04-09T01:20:36.125Z,9.11
2023-04-09T01:23:17.030Z,8.93
2023-04-09T01:26:00.515Z,8.76
2023-04-09T01:28:42.379Z,8.60
2023-04-09T01:31:25.414Z,8.52
2023-04-09T01:33:54.130Z,8.69
2023-04-09T01:36:24.388Z,8.90
2023-04-09T01:38:56.155Z,8.95
2023-04-09T01:41:27.331Z,8.89
2023-04-09T01:43:56.013Z,8.77
2023-04-09T01:46:25.235Z,8.62
2023-04-09T01:48:55.026Z,8.40
2023-04-09T01:51:23.782Z,8.22
2023-04-09T01:53:52.109Z,8.37
2023-04-09T01:56:23.590Z,8.65
2023-04-09T01:58:57.311Z,8.75
2023-04-09T02:01:48.312Z,8.72
2023-04-09T02:04:40.789Z,8.54
2023-04-09T02:07:40.310Z,8.30
2023-04-09T02:10:10.419Z,8.12
2023-04-09T02:12:41.884Z,7.99
2023-04-09T02:15:12.596Z,8.10
2023-04-09T02:17:41.495Z,8.38
2023-04-09T02:20:10.448Z,8.50
2023-04-09T02:22:39.291Z,8.46
2023-04-09T02:25:07.918Z,8.32
2023-04-09T02:27:36.358Z,8.12
2023-04-09T02:30:08.533Z,7.94
2023-04-09T02:32:37.114Z,7.79
2023-04-09T02:35:08.105Z,7.95
2023-04-09T02:37:37.886Z,8.20
2023-04-09T02:40:06.543Z,8.27
2023-04-09T02:42:35.036Z,8.26
2023-04-09T02:45:03.506Z,8.22
2023-04-09T02:47:38.834Z,8.09
2023-04-09T02:50:08.338Z,7.98
2023-04-09T02:52:37.837Z,8.29
2023-04-09T02:55:08.555Z,8.52
2023-04-09T02:57:37.557Z,8.63
2023-04-09T03:00:09.375Z,8.47
2023-04-09T03:02:39.783Z,8.19
2023-04-09T03:05:08.292Z,7.98
2023-04-09T03:07:36.770Z,7.73
2023-04-09T03:10:07.335Z,7.64
2023-04-09T03:12:36.175Z,7.84
2023-04-09T03:15:04.957Z,8.15
2023-04-09T03:17:33.427Z,8.27
2023-04-09T03:20:02.242Z,8.14
2023-04-09T03:22:37.894Z,8.12
2023-04-09T03:25:09.460Z,8.03
2023-04-09T03:27:38.103Z,7.88
2023-04-09T03:30:08.404Z,7.77
2023-04-09T03:32:41.526Z,7.98
2023-04-09T03:35:10.770Z,8.37
2023-04-09T03:37:41.239Z,8.54
2023-04-09T03:40:14.845Z,8.56
2023-04-09T03:42:44.251Z,8.45
2023-04-09T03:45:13.559Z,8.34
2023-04-09T03:47:46.091Z,8.25
2023-04-09T03:50:14.702Z,8.15
2023-04-09T03:52:48.786Z,8.38
2023-04-09T03:55:17.146Z,8.80
2023-04-09T03:57:45.692Z,9.03
2023-04-09T04:00:18.503Z,9.16
2023-04-09T04:02:53.668Z,9.31
2023-04-09T04:05:38.049Z,9.46
2023-04-09T04:08:09.473Z,9.69
2023-04-09T04:10:37.961Z,9.78
2023-04-09T04:13:20.765Z,10.00
2023-04-09T04:15:54.854Z,10.43
2023-04-09T04:18:25.391Z,10.56
2023-04-09T04:20:57.355Z,10.76
2023-04-09T04:23:45.704Z,10.79
2023-04-09T04:26:25.396Z,11.20
2023-04-09T04:28:54.882Z,11.70
2023-04-09T04:31:41.901Z,11.78
2023-04-09T04:34:11.229Z,11.66
2023-04-09T04:36:40.706Z,11.57
2023-04-09T04:39:10.479Z,11.60
2023-04-09T04:41:49.949Z,12.36
2023-04-09T04:44:24.011Z,13.11
2023-04-09T04:46:58.112Z,13.35
2023-04-09T04:49:27.075Z,13.16
2023-04-09T04:51:57.791Z,13.03
2023-04-09T04:54:26.438Z,12.72
2023-04-09T04:56:57.660Z,12.31
2023-04-09T04:59:42.979Z,12.07
2023-04-09T05:02:13.218Z,11.75
2023-04-09T05:04:57.401Z,11.46
2023-04-09T05:07:33.959Z,11.35
2023-04-09T05:10:06.136Z,11.36
2023-04-09T05:12:38.520Z,11.75
2023-04-09T05:15:09.168Z,12.34
2023-04-09T05:17:43.196Z,12.85
2023-04-09T05:20:13.546Z,13.27
2023-04-09T05:22:50.630Z,13.90
2023-04-09T05:25:20.160Z,14.55
2023-04-09T05:27:49.326Z,15.25
2023-04-09T05:30:17.679Z,16.11
2023-04-09T05:32:50.124Z,17.00
2023-04-09T05:35:18.723Z,17.84
2023-04-09T05:37:47.104Z,18.65
2023-04-09T05:40:15.842Z,19.65
2023-04-09T05:42:46.053Z,20.71
2023-04-09T05:45:20.122Z,21.66
2023-04-09T05:47:52.146Z,22.51
2023-04-09T05:50:24.207Z,23.15
2023-04-09T05:53:00.905Z,23.41
2023-04-09T05:55:38.070Z,23.90
2023-04-09T05:58:07.803Z,24.25
2023-04-09T06:00:42.528Z,24.61
2023-04-09T06:03:11.067Z,25.11
2023-04-09T06:05:39.681Z,25.71
2023-04-09T06:08:10.651Z,26.30
2023-04-09T06:10:40.461Z,26.53
2023-04-09T06:13:10.506Z,26.33
2023-04-09T06:15:44.137Z,26.03
2023-04-09T06:18:13.721Z,25.76
2023-04-09T06:20:42.013Z,25.37
2023-04-09T06:23:15.471Z,24.19
2023-04-09T06:25:45.058Z,23.16
2023-04-09T06:28:13.377Z,22.42
2023-04-09T06:30:47.663Z,21.52
2023-04-09T06:33:16.806Z,20.65
2023-04-09T06:35:45.058Z,20.08
2023-04-09T06:38:13.602Z,19.43
2023-04-09T06:40:42.678Z,18.88
2023-04-09T06:43:12.438Z,18.16
2023-04-09T06:45:51.725Z,17.64
2023-04-09T06:48:20.211Z,17.05
2023-04-09T06:50:48.701Z,16.60
2023-04-09T06:53:17.811Z,16.07
2023-04-09T06:55:46.469Z,15.66
2023-04-09T06:58:16.675Z,15.53
2023-04-09T07:00:44.962Z,15.31
2023-04-09T07:03:16.045Z,15.14
2023-04-09T07:05:45.194Z,15.15
2023-04-09T07:08:13.497Z,14.89
2023-04-09T07:10:42.464Z,14.62
2023-04-09T07:13:13.441Z,14.37
2023-04-09T07:15:42.678Z,14.17
2023-04-09T07:18:11.962Z,14.15
2023-04-09T07:20:43.132Z,14.01
2023-04-09T07:23:12.148Z,13.94
2023-04-09T07:25:42.495Z,13.93
2023-04-09T07:28:11.781Z,13.88
2023-04-09T07:30:40.558Z,13.89
2023-04-09T07:33:09.025Z,13.83
2023-04-09T07:35:38.781Z,13.82
2023-04-09T07:38:07.430Z,13.80
2023-04-09T07:40:41.675Z,13.88
2023-04-09T07:43:10.693Z,13.98
2023-04-09T07:45:39.172Z,14.03
2023-04-09T07:48:09.449Z,14.09
2023-04-09T07:50:38.984Z,14.17
2023-04-09T07:53:07.151Z,14.24
2023-04-09T07:55:35.382Z,14.34
2023-04-09T07:58:07.489Z,14.48
2023-04-09T08:00:41.028Z,14.66
2023-04-09T08:03:10.346Z,14.80
2023-04-09T08:05:40.067Z,14.85
2023-04-09T08:11:41.029Z,14.72
2023-04-09T08:14:13.019Z,14.50
2023-04-09T08:16:43.402Z,14.30
2023-04-09T08:19:12.483Z,14.27
2023-04-09T08:21:44.671Z,14.42
2023-04-09T08:24:12.938Z,14.51
2023-04-09T08:26:42.808Z,14.62
2023-04-09T08:29:13.072Z,14.68
2023-04-09T08:31:41.497Z,14.59
2023-04-09T08:34:10.020Z,14.61
2023-04-09T08:36:38.527Z,14.57
2023-04-09T08:39:07.225Z,14.74
2023-04-09T08:41:40.620Z,14.86
2023-04-09T08:44:08.804Z,14.95
2023-04-09T08:46:37.412Z,14.97
2023-04-09T08:49:05.684Z,15.02
2023-04-09T08:51:34.217Z,15.09
2023-04-09T08:54:04.626Z,15.09
2023-04-09T08:56:33.761Z,15.15
